CEG2 weather

CLOSED Acme Airport
Acme, Alberta, Canada

Public forecast

Using degrees Celsius for public forecast. Weather courtesy of forecast.io.

Closest aviation weather report (METAR) to Acme Airport

Closest report is Calgary International Airport, 28.0 nm (51.8 km) SW. Retrieved 2020/04/09 04:00 UTC (9 minutes ago):

CYYC 090400Z 16004KT 15SM FEW200 M02/M10 A3022 RMK CI2 SLP287

Closest aviation forecast (TAF) to Acme Airport

Closest forecast is Calgary International Airport, 28.0 nm (51.8 km) SW. Retrieved 2020-04-09 03:42 UTC (27 minutes ago):

TAF TAF CYYC 090239Z 0903/0924 10006KT P6SM FEW120 BKN240 BECMG 0905/0907 15008KT FM090900 18008KT P6SM SCT120 BKN200 FM091200 18010KT P6SM BKN100 BKN200 BECMG 0916/0918 18005KT FM092000 16005KT P6SM SCT120 BKN240 BECMG 0922/0924 31012KT BKN070 RMK NXT FCST BY 090600Z